Heads, Mississippi
Current Conditions -  °F | °C
As of 10:53 AM on Friday 28 Nov 2014 (Local Time) from KGLH Reporting Station
Clear Clear  
Wind Chill: 42°   Ceiling: Unl
Heat Index: 48°   Visibility: 10mi
Dew Point: 34°   Wind: 14mph
Humidity: 58%   Direction: 160°SSE
Pressure: 30.37"   Gusts: NA
Location:  33.4469°N, 90.8665°W
Report Text: KGLH 281653Z AUTO 16012KT 10SM CLR 09/01 A3037 RMK AO2 SLP294 T00890011
Loading
Personal Weather Stations






























Interactive Weather Map New forecast layout! Learn more

10-Day Weather Forecast

Advertisements
Track Severe Weather on mobile